Sinotrans Manila — VRQA7 — position and weather

sailwx.info

Track history (hours):
 
Tides and Currents Weather Stations Pressure Air Temp Water Temp Dewpoint Dewpoint Depression Visibility Wind Speed Wind Dir Waves Ship Positions

Sinotrans Manila

Last reported at 2018-Jun-20 22:29 UTC. Time now 2018-Jun-20 22:54 UTC.
Position N 35°06' E 139°43'.

Length 172 m; draft 8.7 m.

Type: Ship (hazmat cat A). MMSI: 477112600.

Date/timePositionNaut miles runAvg speedWind from/ knotsBaromVisibWave heightAir tempDewpointWater temp
2018-Jun-20 22:29N 35°06' E 139°43'511.0
2018-Jun-20 22:00N 35°11' E 139°45'510.0
2018-Jun-20 21:30N 35°16' E 139°46'612.1
2018-Jun-20 21:00N 35°21' E 139°42'4 7.2
2018-Jun-20 20:30N 35°24' E 139°41'0 0.1
2018-Jun-20 19:57N 35°24' E 139°41'0 0.0
2018-Jun-20 19:27N 35°24' E 139°41'0 0.0
2018-Jun-20 19:00N 35°24' E 139°41'0 0.0
2018-Jun-20 18:30N 35°24' E 139°41'0 0.0
2018-Jun-20 18:00N 35°24' E 139°41'0 0.0
2018-Jun-20 17:30N 35°24' E 139°41'0 0.0
2018-Jun-20 17:00N 35°24' E 139°41'0 0.0
2018-Jun-20 16:30N 35°24' E 139°41'0 0.0
2018-Jun-20 16:00N 35°24' E 139°41'0 0.0
2018-Jun-20 15:21N 35°24' E 139°41'0 0.0
2018-Jun-20 15:00N 35°24' E 139°41'0 0.0
2018-Jun-20 14:30N 35°24' E 139°41'0 0.0
2018-Jun-20 14:00N 35°24' E 139°41'0 0.0
2018-Jun-20 13:30N 35°24' E 139°41'0 0.0
2018-Jun-20 13:00N 35°24' E 139°41'0 0.0
2018-Jun-20 12:30N 35°24' E 139°41'0 0.0
2018-Jun-20 12:00N 35°24' E 139°41'0 0.0
2018-Jun-20 11:30N 35°24' E 139°41'0 0.0
2018-Jun-20 11:00N 35°24' E 139°41'0 0.0
2018-Jun-20 10:30N 35°24' E 139°41'0 0.0
2018-Jun-20 10:00N 35°24' E 139°41'0 0.0
2018-Jun-20 09:30N 35°24' E 139°41'0 0.0
2018-Jun-20 09:00N 35°24' E 139°41'0 0.0
2018-Jun-20 08:27N 35°24' E 139°41'0 0.1
2018-Jun-20 08:00N 35°24' E 139°41'1 2.6
2018-Jun-20 07:30N 35°24' E 139°42'713.2
2018-Jun-20 07:01N 35°28' E 139°48'611.4
2018-Jun-20 06:31N 35°34' E 139°49'5 9.6
2018-Jun-20 06:00N 35°37' E 139°46'0 0.0
2018-Jun-20 05:26N 35°37' E 139°46'0 0.0
2018-Jun-20 04:59N 35°37' E 139°46'0 0.0
2018-Jun-19 23:32N 35°37' E 139°46'0 0.0
2018-Jun-19 23:17N 35°37' E 139°46'0 0.0
2018-Jun-19 22:59N 35°37' E 139°46'0 0.0
2018-Jun-19 22:29N 35°37' E 139°46'0 0.0
2018-Jun-19 21:59N 35°37' E 139°46'0 0.0
2018-Jun-19 21:23N 35°37' E 139°46'0 0.0
2018-Jun-19 20:59N 35°37' E 139°46'0 0.0
2018-Jun-19 20:26N 35°37' E 139°46'0 0.0
2018-Jun-19 19:59N 35°37' E 139°46'0 0.0
2018-Jun-19 19:26N 35°37' E 139°46'0 0.0
2018-Jun-19 10:23N 35°37' E 139°46'0 0.0
2018-Jun-19 07:53N 35°37' E 139°46'0 0.0
2018-Jun-19 07:14N 35°37' E 139°46'0 0.1
2018-Jun-19 06:56N 35°37' E 139°46'1 1.8
2018-Jun-19 06:30N 35°37' E 139°46'611.4
2018-Jun-19 06:00N 35°33' E 139°51'4 8.6
2018-Jun-19 05:30N 35°29' E 139°51'612.6
2018-Jun-19 05:00N 35°24' E 139°46'611.8
2018-Jun-19 04:31N 35°18' E 139°44'611.5
2018-Jun-19 04:00N 35°13' E 139°47'510.5
2018-Jun-19 03:29N 35°07' E 139°46'713.6
2018-Jun-19 03:00N 35°03' E 139°40'  
2018-Jun-16 05:07N 36°00' E 120°13'0 0.0
2018-Jun-16 03:35N 36°00' E 120°13'0 0.0
2018-Jun-16 03:14N 36°00' E 120°13'0 0.0
2018-Jun-16 02:53N 36°00' E 120°13'0 0.0
2018-Jun-16 02:20N 36°00' E 120°13'0 0.0
2018-Jun-16 01:44N 36°00' E 120°13'0 0.0
2018-Jun-15 23:20N 36°00' E 120°13'0 0.0
2018-Jun-15 22:44N 36°00' E 120°13'0 0.0
2018-Jun-15 22:26N 36°00' E 120°13'0 0.0
2018-Jun-15 12:02N 36°00' E 120°13'  
Track history (hours):
 
Tides and Currents Weather Stations Pressure Air Temp Water Temp Dewpoint Dewpoint Depression Visibility Wind Speed Wind Dir Waves Ship Positions

Sinotrans Manila

Last reported at 2018-Jun-20 22:29 UTC. Time now 2018-Jun-20 22:54 UTC.
Position N 35°06' E 139°43'.

Length 172 m; draft 8.7 m.

Type: Ship (hazmat cat A). MMSI: 477112600.

Date/timePositionNaut miles runAvg speedWind from/ knotsBaromVisibWave heightAir tempDewpointWater temp
2018-Jun-20 22:29N 35°06' E 139°43'511.0
2018-Jun-20 22:00N 35°11' E 139°45'510.0
2018-Jun-20 21:30N 35°16' E 139°46'612.1
2018-Jun-20 21:00N 35°21' E 139°42'4 7.2
2018-Jun-20 20:30N 35°24' E 139°41'0 0.1
2018-Jun-20 19:57N 35°24' E 139°41'0 0.0
2018-Jun-20 19:27N 35°24' E 139°41'0 0.0
2018-Jun-20 19:00N 35°24' E 139°41'0 0.0
2018-Jun-20 18:30N 35°24' E 139°41'0 0.0
2018-Jun-20 18:00N 35°24' E 139°41'0 0.0
2018-Jun-20 17:30N 35°24' E 139°41'0 0.0
2018-Jun-20 17:00N 35°24' E 139°41'0 0.0
2018-Jun-20 16:30N 35°24' E 139°41'0 0.0
2018-Jun-20 16:00N 35°24' E 139°41'0 0.0
2018-Jun-20 15:21N 35°24' E 139°41'0 0.0
2018-Jun-20 15:00N 35°24' E 139°41'0 0.0
2018-Jun-20 14:30N 35°24' E 139°41'0 0.0
2018-Jun-20 14:00N 35°24' E 139°41'0 0.0
2018-Jun-20 13:30N 35°24' E 139°41'0 0.0
2018-Jun-20 13:00N 35°24' E 139°41'0 0.0
2018-Jun-20 12:30N 35°24' E 139°41'0 0.0
2018-Jun-20 12:00N 35°24' E 139°41'0 0.0
2018-Jun-20 11:30N 35°24' E 139°41'0 0.0
2018-Jun-20 11:00N 35°24' E 139°41'0 0.0
2018-Jun-20 10:30N 35°24' E 139°41'0 0.0
2018-Jun-20 10:00N 35°24' E 139°41'0 0.0
2018-Jun-20 09:30N 35°24' E 139°41'0 0.0
2018-Jun-20 09:00N 35°24' E 139°41'0 0.0
2018-Jun-20 08:27N 35°24' E 139°41'0 0.1
2018-Jun-20 08:00N 35°24' E 139°41'1 2.6
2018-Jun-20 07:30N 35°24' E 139°42'713.2
2018-Jun-20 07:01N 35°28' E 139°48'611.4
2018-Jun-20 06:31N 35°34' E 139°49'5 9.6
2018-Jun-20 06:00N 35°37' E 139°46'0 0.0
2018-Jun-20 05:26N 35°37' E 139°46'0 0.0
2018-Jun-20 04:59N 35°37' E 139°46'0 0.0
2018-Jun-19 23:32N 35°37' E 139°46'0 0.0
2018-Jun-19 23:17N 35°37' E 139°46'0 0.0
2018-Jun-19 22:59N 35°37' E 139°46'0 0.0
2018-Jun-19 22:29N 35°37' E 139°46'0 0.0
2018-Jun-19 21:59N 35°37' E 139°46'0 0.0
2018-Jun-19 21:23N 35°37' E 139°46'0 0.0
2018-Jun-19 20:59N 35°37' E 139°46'0 0.0
2018-Jun-19 20:26N 35°37' E 139°46'0 0.0
2018-Jun-19 19:59N 35°37' E 139°46'0 0.0
2018-Jun-19 19:26N 35°37' E 139°46'0 0.0
2018-Jun-19 10:23N 35°37' E 139°46'0 0.0
2018-Jun-19 07:53N 35°37' E 139°46'0 0.0
2018-Jun-19 07:14N 35°37' E 139°46'0 0.1
2018-Jun-19 06:56N 35°37' E 139°46'1 1.8
2018-Jun-19 06:30N 35°37' E 139°46'611.4
2018-Jun-19 06:00N 35°33' E 139°51'4 8.6
2018-Jun-19 05:30N 35°29' E 139°51'612.6
2018-Jun-19 05:00N 35°24' E 139°46'611.8
2018-Jun-19 04:31N 35°18' E 139°44'611.5
2018-Jun-19 04:00N 35°13' E 139°47'510.5
2018-Jun-19 03:29N 35°07' E 139°46'713.6
2018-Jun-19 03:00N 35°03' E 139°40'  
2018-Jun-16 05:07N 36°00' E 120°13'0 0.0
2018-Jun-16 03:35N 36°00' E 120°13'0 0.0
2018-Jun-16 03:14N 36°00' E 120°13'0 0.0
2018-Jun-16 02:53N 36°00' E 120°13'0 0.0
2018-Jun-16 02:20N 36°00' E 120°13'0 0.0
2018-Jun-16 01:44N 36°00' E 120°13'0 0.0
2018-Jun-15 23:20N 36°00' E 120°13'0 0.0
2018-Jun-15 22:44N 36°00' E 120°13'0 0.0
2018-Jun-15 22:26N 36°00' E 120°13'0 0.0
2018-Jun-15 12:02N 36°00' E 120°13'  

Dump ship's entire track history